Kelso, United Kingdom
Current Conditions -  °F | °C
As of 10:50 PM on Monday 24 Nov 2014 (Local Time) from EGQM Reporting Station
Overcast Overcast  
Wind Chill: 45°   Ceiling: 12000
Heat Index: 45°   Visibility: 6mi
Dew Point: 41°   Wind: 3mph
Humidity: 87%   Direction: 140°SE
Pressure: 30.24"   Gusts: NA
Location:  55.6°N, 2.43°W
Report Text: EGQM 242250Z AUTO 14003KT 9999 OVC120/// 07/05 Q1024
Loading
Personal Weather Stations






























Interactive Weather Map New forecast layout! Learn more

10-Day Weather Forecast

Advertisements
Track Severe Weather on mobile